| time (UTC) | temp C | wind direction | speed KPH | gust KPH | rain 1hr cm | rain 24hr cm | rain mn cm | humidity % | barometer mb |
| 20260506201958 | -17 | 0 | 0.0 | 0.0 | 0.00 | 0.00 | 0.00 | 100 | 1008.6 |
| 20260506200245 | -17 | 0 | 0.0 | 0.0 | 0.00 | 0.00 | 0.00 | 100 | 1008.3 |
| 20260506194517 | -17 | 0 | 0.0 | 0.0 | 0.00 | 0.00 | 0.00 | 100 | 1007.8 |
| 20260506192815 | -17 | 0 | 0.0 | 0.0 | 0.00 | 0.00 | 0.00 | 100 | 1007.7 |
| 20260506190955 | -17 | 0 | 0.0 | 0.0 | 0.00 | 0.00 | 0.00 | 100 | 1007.6 |
| 20260506185255 | -17 | 0 | 0.0 | 0.0 | 0.00 | 0.00 | 0.00 | 100 | 1007.6 |
| 20260506183507 | -17 | 0 | 0.0 | 0.0 | 0.00 | 0.00 | 0.00 | 100 | 1007.6 |
| 20260506181630 | -17 | 0 | 0.0 | 0.0 | 0.00 | 0.00 | 0.00 | 100 | 1007.5 |
| 20260506174157 | -17 | 0 | 0.0 | 0.0 | 0.00 | 0.00 | 0.00 | 100 | 1007.5 |
| 20260506172315 | -17 | 0 | 0.0 | 0.0 | 0.00 | 0.00 | 0.00 | 100 | 1007.6 |
| 20260506170602 | -17 | 0 | 0.0 | 0.0 | 0.00 | 0.00 | 0.00 | 100 | 1007.5 |
| 20260506155332 | -17 | 0 | 0.0 | 0.0 | 0.00 | 0.00 | 0.00 | 100 | 1007.7 |
| 20260506153557 | 20 | 0 | 0.0 | 0.0 | 0.00 | 0.00 | 0.00 | 6 | 1007.5 |
| 20260506144242 | 20 | 326 | 1.6 | 9.7 | 0.00 | 0.00 | 0.00 | 6 | 1007.8 |
| 20260506142323 | 20 | 318 | 4.8 | 4.8 | 0.00 | 0.00 | 0.00 | 6 | 1007.9 |
| 20260506140544 | 20 | 290 | 3.2 | 9.7 | 0.00 | 0.00 | 0.00 | 6 | 1008.1 |
| 20260506134752 | 19 | 273 | 1.6 | 3.2 | 0.00 | 0.00 | 0.00 | 6 | 1008.3 |
| 20260506133106 | 20 | 293 | 1.6 | 6.4 | 0.00 | 0.00 | 0.00 | 6 | 1008.2 |
| 20260506131322 | 20 | 316 | 1.6 | 4.8 | 0.00 | 0.00 | 0.00 | 6 | 1008.3 |
| 20260506125422 | -17 | 0 | 0.0 | 0.0 | 0.00 | 0.00 | 0.00 | 100 | 1008.5 |
| 20260506123702 | -17 | 0 | 0.0 | 0.0 | 0.00 | 0.00 | 0.00 | 100 | 1008.5 |
| 20260506120152 | 18 | 185 | 3.2 | 12.9 | 0.00 | 0.00 | 0.00 | 6 | 1009.2 |
| 20260506114322 | 18 | 185 | 3.2 | 12.9 | 0.00 | 0.00 | 0.00 | 6 | 1009.2 |
| 20260506104727 | 18 | 185 | 3.2 | 12.9 | 0.00 | 0.00 | 0.00 | 6 | 1009.2 |
| 20260506103042 | 20 | 0 | 0.0 | 1.6 | 0.00 | 0.00 | 0.00 | 6 | 1009.1 |
| 20260506101227 | 20 | 229 | 3.2 | 12.9 | 0.00 | 0.00 | 0.00 | 6 | 1009.3 |
| 20260506095407 | 19 | 165 | 3.2 | 3.2 | 0.00 | 0.00 | 0.00 | 6 | 1009.2 |
| 20260506093635 | 18 | 244 | 4.8 | 9.7 | 0.00 | 0.00 | 0.00 | 6 | 1009.2 |
| 20260506091745 | 19 | 148 | 1.6 | 6.4 | 0.00 | 0.00 | 0.00 | 6 | 1009.0 |
| 20260506090007 | 18 | 153 | 1.6 | 9.7 | 0.00 | 0.00 | 0.00 | 7 | 1008.9 |
| 20260506082337 | -17 | 0 | 0.0 | 0.0 | 0.00 | 0.00 | 0.00 | 100 | 1008.8 |
| 20260506080552 | -17 | 0 | 0.0 | 0.0 | 0.00 | 0.00 | 0.00 | 100 | 1008.7 |
| 20260506073013 | -17 | 0 | 0.0 | 0.0 | 0.00 | 0.00 | 0.00 | 100 | 1008.6 |
| 20260506071134 | -17 | 0 | 0.0 | 0.0 | 0.00 | 0.00 | 0.00 | 100 | 1008.7 |
| 20260506061803 | 16 | 0 | 0.0 | 0.0 | 0.00 | 0.00 | 0.00 | 7 | 1008.8 |
| 20260506050412 | 16 | 172 | 1.6 | 1.6 | 0.00 | 0.00 | 0.00 | 7 | 1008.1 |
| 20260506044557 | 16 | 0 | 0.0 | 3.2 | 0.00 | 0.00 | 0.00 | 8 | 1007.9 |
| 20260506042657 | 16 | 129 | 1.6 | 3.2 | 0.00 | 0.00 | 0.00 | 8 | 1007.9 |
| 20260506040827 | 16 | 0 | 0.0 | 1.6 | 0.00 | 0.00 | 0.00 | 8 | 1007.8 |
| 20260506035142 | 16 | 165 | 3.2 | 8.0 | 0.00 | 0.00 | 0.00 | 8 | 1007.9 |
| 20260506033357 | 17 | 0 | 0.0 | 1.6 | 0.00 | 0.00 | 0.00 | 8 | 1007.9 |
| 20260506031552 | 17 | 0 | 0.0 | 1.6 | 0.00 | 0.00 | 0.00 | 8 | 1007.8 |
| 20260506025847 | 17 | 0 | 0.0 | 0.0 | 0.00 | 0.00 | 0.00 | 8 | 1007.9 |
| 20260506024132 | 17 | 133 | 3.2 | 3.2 | 0.00 | 0.00 | 0.00 | 8 | 1007.9 |
| 20260506022452 | 17 | 130 | 1.6 | 3.2 | 0.00 | 0.00 | 0.00 | 8 | 1008.0 |
| 20260506020750 | 17 | 0 | 0.0 | 1.6 | 0.00 | 0.00 | 0.00 | 8 | 1008.0 |
| 20260506015114 | 17 | 0 | 0.0 | 3.2 | 0.00 | 0.00 | 0.00 | 8 | 1007.9 |
| 20260506013215 | 17 | 0 | 0.0 | 1.6 | 0.00 | 0.00 | 0.00 | 8 | 1008.0 |
| 20260506011547 | 17 | 124 | 1.6 | 3.2 | 0.00 | 0.00 | 0.00 | 8 | 1008.1 |
| 20260506005909 | 17 | 152 | 1.6 | 3.2 | 0.00 | 0.00 | 0.00 | 7 | 1008.3 |
| 20260506004238 | 17 | 127 | 1.6 | 3.2 | 0.00 | 0.00 | 0.00 | 8 | 1008.4 |
| 20260506002508 | 17 | 146 | 1.6 | 3.2 | 0.00 | 0.00 | 0.00 | 8 | 1008.5 |
| 20260506000634 | 17 | 163 | 3.2 | 3.2 | 0.00 | 0.00 | 0.00 | 8 | 1008.5 |
| 20260505234837 | 17 | 157 | 3.2 | 6.4 | 0.00 | 0.00 | 0.00 | 8 | 1008.5 |
| 20260505233113 | 17 | 116 | 14.5 | 14.5 | 0.00 | 0.00 | 0.00 | 8 | 1008.4 |
| 20260505231312 | 17 | 128 | 4.8 | 9.7 | 0.00 | 0.00 | 0.00 | 8 | 1008.4 |
| 20260505225523 | 17 | 133 | 9.7 | 20.9 | 0.00 | 0.00 | 0.00 | 8 | 1008.3 |
| 20260505223839 | 18 | 155 | 6.4 | 17.7 | 0.00 | 0.00 | 0.00 | 8 | 1008.0 |
| 20260505221944 | 18 | 131 | 6.4 | 16.1 | 0.00 | 0.00 | 0.00 | 8 | 1007.7 |
| 20260505220154 | 18 | 113 | 11.3 | 16.1 | 0.00 | 0.00 | 0.00 | 8 | 1007.7 |
| 20260505214258 | 20 | 121 | 9.7 | 14.5 | 0.00 | 0.00 | 0.00 | 5 | 1006.9 |
| 20260505212453 | 21 | 97 | 3.2 | 6.4 | 0.00 | 0.00 | 0.00 | 5 | 1006.8 |
| 20260505210644 | 21 | 153 | 4.8 | 11.3 | 0.00 | 0.00 | 0.00 | 4 | 1006.7 |
| 20260505204742 | 21 | 143 | 3.2 | 6.4 | 0.00 | 0.00 | 0.00 | 4 | 1006.6 |